Strait of Georgia - north of Nanaimo: Past 24 Hour Conditions

 

Halibut Bank - 46146

06:00 PM PDT 28 March 2017Buoy position: 49.34N 123.72W
Disclaimer

This table is a summary of hourly weather conditions for the past 24 hours.
Please note that these observations might not always be representative of weather conditions over their associated marine area.

Date / Time
(PDT)
Wind(knots) Wave height(m) Wave period(s) Pressure(kPa) Air tempC) Water tempC)
28 March 2017
18:00 E 18 gust 21 0.7 4.0 101.9 8 8
17:00 E 18 gust 21 0.8 4.0 101.9 8 8
16:00 E 19 gust 23 0.8 4.0 101.9 8 8
15:00 E 19 gust 23 0.9 4.0 101.9 8 8
14:00 E 19 gust 21 1.0 4.0 102.0 8 8
13:00 E 21 gust 25 1.1 4.0 102.0 8 8
12:00 E 23 N/A N/A 101.9 8 N/A
11:00 ESE 21 gust 27 1.1 4.0 101.9 8 8
10:00 E 23 gust 29 1.3 4.0 101.9 8 8
9:00 ESE 23 gust 27 1.1 4.0 101.8 8 8
8:00 ESE 23 gust 29 1.1 4.0 101.8 8 8
7:00 ESE 21 gust 25 1.0 4.0 101.8 8 8
6:00 ESE 21 gust 25 0.9 4.0 101.8 8 8
5:00 ESE 19 gust 23 0.8 3.0 101.9 8 8
4:00 ESE 19 gust 25 0.8 4.0 101.9 8 8
3:00 ESE 19 gust 23 0.9 4.0 102.0 8 8
2:00 ESE 19 gust 23 0.7 4.0 102.0 8 8
1:00 ESE 18 gust 21 0.6 3.0 102.0 8 8
0:00 ESE 16 gust 19 0.6 3.0 102.1 8 8
27 March 2017
23:00 ESE 16 gust 19 0.5 3.0 102.1 9 8
22:00 SE 16 gust 18 0.4 3.0 102.1 9 8
21:00 SE 14 gust 16 0.3 2.0 102.0 9 8
20:00 SE 12 gust 14 0.4 3.0 102.0 9 8
19:00 SSE 12 gust 16 0.3 3.0 101.9 9 8
18:00 SE 8 gust 10 0.4 3.0 101.9 9 8

Zoom-in to make a selection

Map of Pacific - Georgia Basin marine weather areas Tsawwassen Ferry Terminal Sentry Shoal - 46131 Halibut Bank - 46146 La Perouse Bank - 46206 Discovery Island Esquimalt Harbour Kelp Reefs Malahat Race Rocks Lightstation Saturna Island Sheringham Point University of Victoria Victoria Gonzales Victoria Int'l Airport Ballenas Islands Campbell River Airport Comox Airport Entrance Island Fanny Island Nanaimo Airport Sisters Islets Estevan Point Tofino Airport Grief Point Powell River Airport Sechelt Point Atkinson Sand Heads Lightstation Vancouver Harbour Vancouver Int'l Airport West Vancouver Port Alberni Howe Sound - Pam Rocks Squamish Airport
Legend:
buoy Buoy
land station Land Station

Pacific - Georgia Basin Area

Another Region

What we are doing

Date modified: